Time;durP1;ratioP1;P1;durP2;ratioP2;P2;SDS_P1;SDS_P2;PMS_P1;PMS_P2;Temp;Humidity;BMP_temperature;BMP_pressure;BME280_temperature;BME280_humidity;BME280_pressure;Samples;Min_cycle;Max_cycle;Signal;HPM_P1;HPM_P2
2021/08/24 05:45:02;;;;;;;43.07;7.60;;;;;;;11.14;91.71;97328.94;2593808;36;20969;-71
2021/08/24 05:47:32;;;;;;;80.37;9.40;;;;;;;11.18;92.69;97308.66;2594883;47;20430;-72
2021/08/24 05:50:03;;;;;;;49.13;9.33;;;;;;;11.65;91.09;97313.59;2594816;36;21290;-74
2021/08/24 05:52:32;;;;;;;12.40;7.87;;;;;;;11.50;91.47;97314.53;2594991;39;20771;-72
2021/08/24 05:55:02;;;;;;;20.20;8.27;;;;;;;12.20;89.22;97309.31;2594866;36;20391;-72
2021/08/24 05:57:40;;;;;;;15.07;6.93;;;;;;;12.54;87.41;97312.38;2595124;54;20424;-75
2021/08/24 06:00:13;;;;;;;14.43;6.90;;;;;;;12.77;85.70;97310.88;2595432;36;21000;-72
2021/08/24 06:02:46;;;;;;;16.73;6.87;;;;;;;12.34;87.60;97318.94;2593934;54;20419;-72
2021/08/24 06:05:16;;;;;;;16.27;6.37;;;;;;;12.82;85.29;97315.84;2595068;36;20867;-75
2021/08/24 06:07:46;;;;;;;10.87;6.10;;;;;;;12.93;84.88;97312.50;2594269;39;20755;-74
2021/08/24 06:10:15;;;;;;;194.03;13.50;;;;;;;12.52;86.08;97308.19;2594107;31;20746;-73
2021/08/24 06:12:45;;;;;;;25.07;7.17;;;;;;;13.14;84.21;97311.03;2594673;54;20425;-73
2021/08/24 06:15:18;;;;;;;108.47;10.50;;;;;;;13.05;84.00;97307.25;2594026;36;20736;-74
2021/08/24 06:17:48;;;;;;;11.00;6.93;;;;;;;13.24;83.55;97308.63;2595555;54;20424;-74
2021/08/24 06:20:19;;;;;;;14.13;5.93;;;;;;;12.82;85.85;97306.16;2595091;36;20442;-72
2021/08/24 06:22:48;;;;;;;12.30;6.70;;;;;;;12.71;86.13;97313.09;2595737;54;20991;-72
2021/08/24 06:25:18;;;;;;;13.40;5.43;;;;;;;12.91;85.46;97319.63;2596315;36;20936;-72
2021/08/24 06:27:48;;;;;;;6.53;4.57;;;;;;;12.97;85.05;97314.78;2594210;54;20454;-72
2021/08/24 06:30:22;;;;;;;11.30;4.60;;;;;;;13.15;83.42;97312.75;2594800;36;20905;-74
2021/08/24 06:32:56;;;;;;;14.73;5.20;;;;;;;13.37;82.03;97312.13;2594675;39;20758;-73
2021/08/24 06:35:26;;;;;;;8.67;5.50;;;;;;;13.52;82.14;97304.97;2595189;36;20413;-74
2021/08/24 06:37:56;;;;;;;8.13;4.80;;;;;;;13.52;80.92;97315.47;2595066;54;20465;-74
2021/08/24 06:40:26;;;;;;;13.33;5.40;;;;;;;13.70;81.91;97315.16;2595074;36;20829;-73
2021/08/24 06:42:56;;;;;;;9.77;5.33;;;;;;;14.36;80.84;97306.00;2594475;47;20430;-73
2021/08/24 06:45:32;;;;;;;8.50;4.83;;;;;;;15.29;76.67;97315.00;2594619;36;20453;-73
2021/08/24 06:48:09;;;;;;;6.97;4.70;;;;;;;15.62;76.40;97309.75;2595013;54;20456;-74
2021/08/24 06:50:42;;;;;;;6.90;4.93;;;;;;;15.54;74.55;97312.16;2594389;36;20918;-73
2021/08/24 06:53:13;;;;;;;6.10;3.80;;;;;;;15.35;76.01;97296.06;2608399;47;20418;-76
2021/08/24 06:55:43;;;;;;;6.03;4.23;;;;;;;15.47;75.78;97300.41;2599909;36;20578;-76
2021/08/24 06:58:15;;;;;;;6.03;3.80;;;;;;;15.65;74.79;97308.69;2598031;54;20534;-73
2021/08/24 07:00:48;;;;;;;8.87;4.90;;;;;;;15.51;74.62;97306.28;2594994;36;20807;-72
2021/08/24 07:03:19;;;;;;;10.03;4.07;;;;;;;15.33;75.22;97313.81;2594718;31;20852;-74
2021/08/24 07:05:52;;;;;;;13.20;3.90;;;;;;;15.15;76.64;97300.22;2595304;36;20434;-72
2021/08/24 07:08:21;;;;;;;7.77;4.13;;;;;;;15.13;76.81;97308.28;2594874;39;20763;-74
2021/08/24 07:10:51;;;;;;;7.63;4.23;;;;;;;15.29;75.29;97310.56;2595682;36;20462;-72
2021/08/24 07:13:22;;;;;;;5.67;3.10;;;;;;;15.13;75.81;97310.91;2595666;39;21158;-72
2021/08/24 07:15:55;;;;;;;9.43;4.63;;;;;;;15.44;74.33;97297.97;2595360;36;20778;-72
2021/08/24 07:18:25;;;;;;;5.10;3.67;;;;;;;15.73;73.48;97308.09;2595521;54;20933;-75
2021/08/24 07:20:56;;;;;;;5.20;3.53;;;;;;;15.46;75.29;97311.91;2596221;36;20990;-75
2021/08/24 07:23:26;;;;;;;7.73;3.63;;;;;;;15.55;74.09;97305.91;2597193;54;20442;-74
2021/08/24 07:25:56;;;;;;;12.43;3.50;;;;;;;15.69;74.03;97301.34;2597278;36;20961;-74
2021/08/24 07:28:26;;;;;;;14.33;4.37;;;;;;;15.14;73.97;97296.75;2596295;31;20866;-74
2021/08/24 07:30:59;;;;;;;9.40;4.40;;;;;;;15.28;75.21;97302.78;2599107;36;20459;-75
2021/08/24 07:33:31;;;;;;;9.20;3.70;;;;;;;15.36;74.23;97301.22;2601832;47;20410;-74
2021/08/24 07:36:02;;;;;;;10.03;4.27;;;;;;;15.42;73.72;97298.09;2606205;31;20451;-75
2021/08/24 07:38:32;;;;;;;7.33;4.13;;;;;;;15.14;74.57;97299.38;2607386;54;20498;-75
2021/08/24 07:41:02;;;;;;;4.30;3.03;;;;;;;15.46;74.28;97300.50;2601092;36;21178;-76
2021/08/24 07:43:32;;;;;;;7.00;3.50;;;;;;;15.65;73.45;97305.19;2596102;54;20465;-76
2021/08/24 07:46:04;;;;;;;7.83;3.80;;;;;;;14.41;75.88;97314.44;2596871;36;20926;-76
2021/08/24 07:48:35;;;;;;;9.20;4.30;;;;;;;14.99;75.66;97303.19;2599419;54;20454;-74
2021/08/24 07:51:06;;;;;;;7.87;3.60;;;;;;;15.43;74.42;97309.50;2596230;31;20407;-76
2021/08/24 07:53:36;;;;;;;10.10;3.70;;;;;;;15.54;73.71;97298.97;2595996;54;20449;-75
2021/08/24 07:56:09;;;;;;;4.80;3.20;;;;;;;15.66;72.39;97313.00;2597325;36;20895;-74
2021/08/24 07:58:39;;;;;;;4.87;3.30;;;;;;;15.89;71.64;97308.56;2600238;54;20954;-75
2021/08/24 08:01:21;;;;;;;4.70;3.47;;;;;;;16.08;70.54;97315.06;2602998;36;20466;-75
2021/08/24 08:03:51;;;;;;;6.10;4.23;;;;;;;15.63;73.59;97313.22;2598553;54;20921;-76
2021/08/24 08:06:21;;;;;;;6.20;3.70;;;;;;;15.89;72.46;97313.03;2597821;36;21132;-75
2021/08/24 08:08:51;;;;;;;9.23;4.43;;;;;;;15.29;72.85;97309.72;2597750;46;20403;-73
2021/08/24 08:11:21;;;;;;;42.83;24.03;;;;;;;15.21;74.04;97313.78;2595478;36;20430;-73
2021/08/24 08:13:51;;;;;;;22.93;11.70;;;;;;;15.29;73.90;97309.72;2595612;54;20453;-73
2021/08/24 08:16:24;;;;;;;4.90;3.70;;;;;;;15.54;72.57;97317.44;2595667;36;20546;-72
2021/08/24 08:18:54;;;;;;;6.00;3.47;;;;;;;15.88;72.08;97319.28;2596672;54;20403;-72
2021/08/24 08:21:24;;;;;;;13.53;4.00;;;;;;;15.89;71.20;97310.38;2596273;31;21111;-73
2021/08/24 08:23:53;;;;;;;5.70;3.60;;;;;;;16.31;71.39;97318.50;2595750;39;20751;-73
2021/08/24 08:26:23;;;;;;;6.70;4.20;;;;;;;16.54;69.16;97313.97;2596286;36;20928;-73
2021/08/24 08:28:55;;;;;;;11.30;4.40;;;;;;;15.63;72.13;97314.06;2596067;39;20759;-72
2021/08/24 08:31:35;;;;;;;13.23;3.57;;;;;;;16.38;70.19;97314.38;2596086;36;20861;-73
2021/08/24 08:34:05;;;;;;;6.73;4.10;;;;;;;16.66;68.40;97325.34;2595661;54;20383;-73
2021/08/24 08:36:35;;;;;;;11.20;4.17;;;;;;;16.94;66.96;97326.59;2595871;36;20486;-73
2021/08/24 08:39:06;;;;;;;5.10;3.57;;;;;;;17.95;65.24;97318.00;2595074;54;20453;-73
2021/08/24 08:41:43;;;;;;;5.30;3.30;;;;;;;18.34;61.09;97318.06;2595757;36;20407;-73
2021/08/24 08:44:24;;;;;;;5.97;3.57;;;;;;;19.14;60.22;97310.88;2596583;54;21240;-73
2021/08/24 08:47:03;;;;;;;7.07;3.27;;;;;;;19.47;57.83;97322.00;2597241;36;20427;-73
2021/08/24 08:49:52;;;;;;;4.30;3.27;;;;;;;19.27;59.91;97307.09;2595924;39;20791;-73
2021/08/24 08:52:28;;;;;;;9.93;3.20;;;;;;;19.69;56.77;97304.03;2594937;36;20934;-72
2021/08/24 08:55:04;;;;;;;4.80;3.00;;;;;;;19.50;57.79;97303.13;2594840;36;20454;-73
2021/08/24 08:57:42;;;;;;;18.73;3.40;;;;;;;19.68;56.45;97305.00;2594995;39;20777;-73
2021/08/24 09:00:17;;;;;;;5.47;3.30;;;;;;;19.85;55.25;97314.91;2597583;36;20566;-73
2021/08/24 09:02:53;;;;;;;21.90;3.30;;;;;;;19.31;56.69;97313.81;2595788;47;20437;-73
2021/08/24 09:05:27;;;;;;;9.20;2.80;;;;;;;19.71;55.04;97304.72;2597724;36;20430;-73
2021/08/24 09:07:59;;;;;;;5.37;2.80;;;;;;;20.10;54.26;97302.75;2597266;54;20914;-73
2021/08/24 09:10:35;;;;;;;5.70;2.80;;;;;;;19.38;56.11;97296.28;2596385;31;20418;-73
2021/08/24 09:13:10;;;;;;;14.17;3.20;;;;;;;18.93;56.89;97291.63;2596359;54;20550;-73
2021/08/24 09:15:45;;;;;;;18.30;12.50;;;;;;;19.36;56.12;97295.59;2597110;36;20398;-73
2021/08/24 09:18:23;;;;;;;21.73;8.83;;;;;;;19.81;55.64;97292.25;2596684;54;20410;-73
2021/08/24 09:21:01;;;;;;;5.50;2.60;;;;;;;19.66;56.06;97293.69;2596123;36;21041;-73
2021/08/24 09:23:32;;;;;;;20.80;3.63;;;;;;;20.82;53.66;97294.06;2597445;54;20411;-73
2021/08/24 09:26:14;;;;;;;4.27;2.90;;;;;;;20.84;54.08;97287.59;2597894;36;20546;-72
2021/08/24 09:28:44;;;;;;;8.80;3.20;;;;;;;20.88;54.47;97286.28;2595025;54;21004;-73
2021/08/24 09:31:20;;;;;;;26.87;4.33;;;;;;;21.18;53.02;97288.69;2594825;36;20954;-72
2021/08/24 09:33:54;;;;;;;13.73;3.00;;;;;;;21.29;52.52;97293.75;2595344;54;20969;-73
2021/08/24 09:36:24;;;;;;;7.13;2.57;;;;;;;20.43;55.75;97295.16;2595048;31;20693;-73
2021/08/24 09:38:57;;;;;;;14.23;3.60;;;;;;;19.39;58.09;97303.28;2593896;47;20455;-73
2021/08/24 09:41:29;;;;;;;5.70;2.80;;;;;;;19.37;58.64;97289.31;2595353;36;20853;-73
2021/08/24 09:44:25;;;;;;;5.07;3.50;;;;;;;19.71;57.71;97288.78;2600227;54;20945;-72
2021/08/24 09:47:07;;;;;;;4.70;2.87;;;;;;;17.56;63.50;97304.56;2597175;31;20430;-73
2021/08/24 09:49:43;;;;;;;7.03;3.60;;;;;;;18.15;63.24;97303.00;2594631;54;20898;-73
2021/08/24 09:52:21;;;;;;;8.90;3.50;;;;;;;18.32;60.92;97304.13;2594147;36;20881;-73
2021/08/24 09:54:56;;;;;;;8.63;3.10;;;;;;;17.72;63.28;97300.56;2594827;39;20825;-72
2021/08/24 09:57:28;;;;;;;4.83;2.80;;;;;;;18.18;63.17;97299.22;2558531;54;2004166;-73
2021/08/24 10:00:21;;;;;;;9.57;3.10;;;;;;;17.62;62.98;97308.50;2594314;36;20391;-73
2021/08/24 10:02:53;;;;;;;4.80;2.80;;;;;;;16.17;65.01;97306.38;2594504;54;20415;-73
2021/08/24 10:05:40;;;;;;;5.63;2.97;;;;;;;16.29;65.64;97315.09;2595373;36;20978;-74
2021/08/24 10:08:34;;;;;;;5.83;3.10;;;;;;;16.31;67.70;97313.22;2595296;54;20457;-73
2021/08/24 10:11:13;;;;;;;6.43;3.00;;;;;;;17.70;62.79;97313.09;2595303;36;20426;-73
2021/08/24 10:13:46;;;;;;;10.40;3.20;;;;;;;17.97;61.69;97310.75;2593519;39;20855;-73
2021/08/24 10:16:27;;;;;;;19.93;12.43;;;;;;;17.64;64.29;97308.34;2594181;36;21074;-74
2021/08/24 10:19:10;;;;;;;35.40;19.83;;;;;;;18.29;62.34;97311.53;2595494;54;21304;-71
2021/08/24 10:21:46;;;;;;;42.77;24.40;;;;;;;18.34;62.05;97311.94;2596232;36;20696;-72
2021/08/24 10:24:17;;;;;;;42.43;24.17;;;;;;;18.83;60.23;97312.84;2597163;54;21036;-72
2021/08/24 10:26:56;;;;;;;18.93;10.50;;;;;;;18.36;61.56;97296.75;2595294;36;20413;-72
2021/08/24 10:29:30;;;;;;;23.90;16.53;;;;;;;18.48;60.47;97318.66;2594052;39;20809;-73
2021/08/24 10:32:02;;;;;;;10.30;3.20;;;;;;;18.38;61.89;97316.84;2594600;36;20418;-71
2021/08/24 10:34:37;;;;;;;5.90;3.40;;;;;;;18.41;62.05;97314.91;2596326;54;20459;-73
2021/08/24 10:37:41;;;;;;;5.20;3.80;;;;;;;18.10;62.82;97309.66;2594674;36;20422;-73
2021/08/24 10:40:20;;;;;;;6.00;3.40;;;;;;;18.05;62.84;97322.47;2593899;36;20771;-72
2021/08/24 10:43:19;;;;;;;7.37;3.50;;;;;;;17.98;62.72;97324.84;2594282;47;20437;-73
2021/08/24 10:46:19;;;;;;;6.00;2.60;;;;;;;17.96;62.56;97326.78;2596230;31;21248;-73
2021/08/24 10:48:49;;;;;;;10.37;3.70;;;;;;;18.11;62.74;97311.31;2595257;54;20423;-72
2021/08/24 10:51:44;;;;;;;4.60;3.07;;;;;;;18.66;61.89;97322.34;2594152;36;21161;-73
2021/08/24 10:54:35;;;;;;;4.10;2.93;;;;;;;19.09;60.21;97313.13;2594658;54;20800;-73
2021/08/24 10:57:19;;;;;;;7.83;3.80;;;;;;;18.86;61.06;97317.91;2594618;36;20435;-73
2021/08/24 10:59:59;;;;;;;128.73;14.37;;;;;;;18.54;62.71;97318.97;2595304;54;20419;-73
2021/08/24 11:02:43;;;;;;;7.43;3.07;;;;;;;18.62;62.52;97315.63;2559150;54;2005612;-73
2021/08/24 11:05:27;;;;;;;35.00;24.23;;;;;;;18.37;62.70;97314.34;2595258;36;20431;-72
2021/08/24 11:08:07;;;;;;;80.90;46.97;;;;;;;17.78;64.20;97322.06;2595605;54;20395;-73
2021/08/24 11:10:49;;;;;;;8.30;3.90;;;;;;;17.94;64.61;97326.06;2595873;36;20513;-72
2021/08/24 11:13:32;;;;;;;5.70;3.50;;;;;;;17.91;64.34;97326.31;2595766;31;20830;-72
2021/08/24 11:16:12;;;;;;;10.37;3.57;;;;;;;17.87;64.87;97328.41;2595816;36;20449;-73
2021/08/24 11:18:49;;;;;;;4.23;3.07;;;;;;;17.73;64.06;97328.75;2598287;54;20526;-74
2021/08/24 11:21:30;;;;;;;19.03;5.23;;;;;;;17.56;65.87;97333.69;2598617;36;20450;-73
2021/08/24 11:24:17;;;;;;;6.30;3.30;;;;;;;17.74;64.59;97327.78;2598331;54;20407;-73
2021/08/24 11:26:56;;;;;;;6.47;3.17;;;;;;;17.57;66.23;97335.34;2599996;36;20433;-73
2021/08/24 11:29:31;;;;;;;6.40;3.53;;;;;;;17.61;66.20;97324.50;2595480;54;20442;-73
2021/08/24 11:32:10;;;;;;;4.90;3.40;;;;;;;17.30;66.43;97325.28;2596463;36;20819;-74
2021/08/24 11:34:45;;;;;;;8.00;3.90;;;;;;;17.43;66.95;97333.06;2595788;51;20426;-75
2021/08/24 11:37:20;;;;;;;6.87;3.43;;;;;;;17.45;67.30;97332.94;2595011;36;20904;-73
2021/08/24 11:39:54;;;;;;;7.43;3.50;;;;;;;17.72;64.87;97337.63;2595222;46;20911;-73
2021/08/24 11:42:31;;;;;;;7.63;2.90;;;;;;;16.14;68.52;97322.47;2596251;36;20985;-73
2021/08/24 11:45:02;;;;;;;14.90;3.00;;;;;;;17.07;67.40;97342.28;2595168;36;20447;-73
2021/08/24 11:47:37;;;;;;;6.60;3.37;;;;;;;17.62;64.69;97332.31;2594997;54;21099;-73
2021/08/24 11:50:13;;;;;;;16.77;3.83;;;;;;;16.89;67.53;97339.34;2593840;36;20431;-73
2021/08/24 11:52:48;;;;;;;7.20;3.00;;;;;;;16.87;68.43;97344.75;2595705;31;20811;-73
2021/08/24 11:55:23;;;;;;;30.10;4.80;;;;;;;17.11;66.87;97349.84;2595356;36;20414;-73
2021/08/24 11:58:06;;;;;;;9.23;3.07;;;;;;;17.12;66.98;97351.50;2595726;39;20858;-73
2021/08/24 12:00:36;;;;;;;6.40;3.10;;;;;;;17.22;66.78;97341.00;2594826;31;20882;-74
2021/08/24 12:03:11;;;;;;;5.97;2.90;;;;;;;16.50;69.38;97352.19;2594848;54;20418;-72
2021/08/24 12:05:48;;;;;;;10.83;3.57;;;;;;;17.29;67.21;97357.19;2596055;36;20457;-76
2021/08/24 12:08:23;;;;;;;5.50;3.33;;;;;;;17.33;67.59;97355.97;2597041;47;21330;-73
2021/08/24 12:11:05;;;;;;;9.90;2.93;;;;;;;17.00;69.02;97349.88;2595803;36;20902;-73
2021/08/24 12:13:40;;;;;;;122.27;69.90;;;;;;;17.37;67.15;97352.09;2595495;39;20779;-73
2021/08/24 12:16:30;;;;;;;51.47;29.40;;;;;;;16.89;68.97;97357.88;2595916;36;21006;-73
2021/08/24 12:19:21;;;;;;;6.37;3.77;;;;;;;17.16;67.85;97355.56;2595539;54;20479;-73
2021/08/24 12:21:55;;;;;;;8.50;4.40;;;;;;;17.23;67.36;97360.34;2594809;36;20477;-72
2021/08/24 12:24:53;;;;;;;16.17;3.97;;;;;;;17.24;68.08;97356.75;2594475;47;20403;-72
2021/08/24 12:27:45;;;;;;;7.07;3.63;;;;;;;17.24;68.38;97348.81;2598030;36;20864;-73
2021/08/24 12:30:21;;;;;;;6.07;3.93;;;;;;;17.47;68.38;97350.34;2597296;36;20888;-73
2021/08/24 12:33:19;;;;;;;7.17;3.80;;;;;;;17.16;68.63;97352.94;2595978;54;20926;-72
2021/08/24 12:35:49;;;;;;;8.53;5.07;;;;;;;17.34;68.92;97353.19;2596423;36;20422;-73
2021/08/24 12:38:48;;;;;;;7.87;4.30;;;;;;;17.18;68.82;97355.44;2599854;54;20955;-72
2021/08/24 12:41:47;;;;;;;9.57;4.50;;;;;;;17.15;68.88;97359.19;2596106;36;20423;-73
2021/08/24 12:44:26;;;;;;;6.33;3.70;;;;;;;17.03;69.38;97354.06;2596544;54;21405;-72
2021/08/24 12:47:29;;;;;;;7.07;3.77;;;;;;;17.24;69.58;97356.75;2596441;36;20451;-72
2021/08/24 12:50:36;;;;;;;7.10;3.90;;;;;;;16.84;70.68;97358.25;2597537;36;20485;-72
2021/08/24 12:53:36;;;;;;;8.20;4.70;;;;;;;16.86;70.18;97361.63;2595525;54;20450;-74
2021/08/24 12:56:07;;;;;;;8.80;4.60;;;;;;;16.95;70.52;97346.78;2595799;36;20430;-72
2021/08/24 12:58:49;;;;;;;7.87;4.17;;;;;;;17.25;69.04;97366.34;2595105;54;20413;-72
2021/08/24 13:01:29;;;;;;;7.30;4.10;;;;;;;17.94;67.93;97356.06;2595041;36;21036;-72
2021/08/24 13:04:17;;;;;;;6.63;4.07;;;;;;;18.42;66.62;97340.44;2596343;47;20490;-72
2021/08/24 13:07:10;;;;;;;8.00;4.87;;;;;;;19.28;63.50;97335.31;2597048;36;20789;-72
2021/08/24 13:09:43;;;;;;;7.90;4.77;;;;;;;20.39;59.74;97328.34;2596193;31;20860;-72
2021/08/24 13:12:39;;;;;;;6.23;3.90;;;;;;;18.48;64.26;97340.72;2594606;36;20742;-72
2021/08/24 13:22:35;;;;;;;6.60;4.30;;;;;;;18.36;66.15;97345.28;2595414;36;20856;-73
2021/08/24 13:25:06;;;;;;;9.10;4.70;;;;;;;17.91;66.73;97336.94;2595076;36;21078;-72
2021/08/24 13:27:44;;;;;;;9.20;4.73;;;;;;;18.25;65.90;97334.81;2595681;54;20516;-72
2021/08/24 13:30:19;;;;;;;7.17;5.00;;;;;;;18.70;64.96;97339.63;2595294;36;20825;-72
2021/08/24 13:32:52;;;;;;;136.93;15.00;;;;;;;18.98;63.68;97342.47;2596807;54;20925;-72
2021/08/24 13:35:24;;;;;;;7.30;4.07;;;;;;;19.06;63.36;97334.63;2596672;36;20966;-73
2021/08/24 13:38:19;;;;;;;95.93;12.70;;;;;;;18.86;62.72;97335.63;2594252;54;20926;-72
2021/08/24 13:40:51;;;;;;;8.57;4.37;;;;;;;18.89;64.24;97343.31;2594294;36;20900;-72
2021/08/24 13:43:25;;;;;;;11.83;4.40;;;;;;;18.98;63.22;97342.47;2593986;54;21149;-73
2021/08/24 13:45:57;;;;;;;8.67;4.50;;;;;;;18.68;64.33;97340.72;2594613;36;20838;-72
2021/08/24 13:48:31;;;;;;;6.73;4.23;;;;;;;19.06;62.89;97337.28;2594587;54;20427;-72
2021/08/24 13:51:03;;;;;;;6.93;3.73;;;;;;;19.16;62.69;97340.78;2595072;36;20418;-72
2021/08/24 13:53:37;;;;;;;5.87;4.10;;;;;;;18.93;63.69;97337.59;2594938;39;21063;-72
2021/08/24 13:56:10;;;;;;;6.40;3.93;;;;;;;18.89;64.39;97345.97;2593835;36;20414;-72
2021/08/24 13:58:42;;;;;;;7.10;4.40;;;;;;;18.54;64.26;97336.66;2594253;51;20383;-72
2021/08/24 14:01:15;;;;;;;11.43;3.40;;;;;;;18.74;64.18;97337.56;2594797;36;20421;-72
2021/08/24 14:07:05;;;;;;;4.97;3.43;;;;;;;17.78;66.93;97347.72;2596361;31;20937;-72
2021/08/24 14:09:43;;;;;;;9.47;5.03;;;;;;;18.47;65.08;97338.22;2595362;54;20461;-73
2021/08/24 14:12:22;;;;;;;7.90;4.20;;;;;;;18.42;65.03;97330.66;2594631;36;20414;-72
2021/08/24 14:14:58;;;;;;;8.10;5.00;;;;;;;18.45;64.63;97329.56;2595088;54;20378;-72
2021/08/24 14:17:38;;;;;;;6.23;4.43;;;;;;;18.15;66.18;97340.09;2558965;54;2004265;-72
2021/08/24 14:20:16;;;;;;;6.30;4.47;;;;;;;18.40;64.79;97332.59;2599542;31;21140;-73
2021/08/24 14:22:47;;;;;;;6.97;4.50;;;;;;;18.52;65.02;97328.03;2598808;54;21278;-72
2021/08/24 14:25:24;;;;;;;6.53;4.37;;;;;;;18.35;64.94;97330.38;2595563;36;20970;-73
2021/08/24 14:27:54;;;;;;;16.50;5.20;;;;;;;18.13;67.05;97330.56;2595463;54;20418;-72
2021/08/24 14:30:24;;;;;;;9.10;4.10;;;;;;;18.24;65.60;97325.19;2594444;36;20402;-72
2021/08/24 14:32:54;;;;;;;7.40;4.50;;;;;;;18.29;66.46;97319.50;2595361;54;20910;-72
2021/08/24 14:35:55;;;;;;;14.03;5.23;;;;;;;19.87;61.46;97320.91;2595007;36;20477;-71
2021/08/24 14:38:32;;;;;;;11.50;4.70;;;;;;;21.43;57.63;97327.00;2595216;54;20382;-73
2021/08/24 14:41:17;;;;;;;6.93;4.47;;;;;;;22.03;55.17;97324.38;2594894;36;21250;-73
2021/08/24 14:43:50;;;;;;;7.03;3.83;;;;;;;22.32;53.81;97317.81;2595320;54;20533;-73
2021/08/24 14:46:27;;;;;;;7.60;4.03;;;;;;;21.81;54.23;97325.72;2595550;36;20410;-73
2021/08/24 14:49:00;;;;;;;12.60;4.20;;;;;;;20.82;56.39;97324.16;2595328;39;20760;-72
2021/08/24 14:51:31;;;;;;;8.93;3.93;;;;;;;20.14;58.80;97328.06;2595333;36;20433;-73
2021/08/24 14:54:02;;;;;;;5.00;3.10;;;;;;;20.54;59.22;97323.34;2595057;54;20969;-73
2021/08/24 14:56:38;;;;;;;6.67;3.50;;;;;;;22.04;54.59;97328.69;2594995;36;20433;-73
2021/08/24 14:59:15;;;;;;;12.67;4.40;;;;;;;22.38;53.84;97311.81;2595104;54;20410;-73
2021/08/24 15:02:20;;;;;;;49.40;34.93;;;;;;;23.24;50.95;97317.81;2595299;31;20958;-73
2021/08/24 15:04:53;;;;;;;10.83;3.80;;;;;;;24.16;48.89;97318.28;2595563;54;20386;-73
2021/08/24 15:07:24;;;;;;;7.80;3.50;;;;;;;25.15;46.42;97305.16;2595962;36;21396;-73
2021/08/24 15:09:54;;;;;;;5.20;3.70;;;;;;;24.95;46.78;97304.81;2595122;54;20406;-73
2021/08/24 15:12:29;;;;;;;5.67;3.87;;;;;;;25.28;45.86;97304.53;2560353;39;2004127;-73
2021/08/24 15:15:02;;;;;;;8.50;3.90;;;;;;;23.31;50.86;97305.44;2595418;36;20482;-73
2021/08/24 15:17:37;;;;;;;6.70;4.63;;;;;;;22.41;53.35;97313.34;2596180;54;20415;-73
2021/08/24 15:20:13;;;;;;;5.57;4.00;;;;;;;21.76;54.85;97309.41;2594694;31;20430;-73
2021/08/24 15:22:44;;;;;;;6.30;3.60;;;;;;;21.57;55.90;97313.13;2596022;39;20772;-73
2021/08/24 15:25:31;;;;;;;7.30;4.07;;;;;;;21.03;57.42;97315.00;2596604;36;20456;-73
2021/08/24 15:28:06;;;;;;;6.87;5.07;;;;;;;20.79;57.58;97311.16;2597550;54;20984;-73
2021/08/24 15:30:36;;;;;;;6.70;4.60;;;;;;;20.12;59.26;97305.28;2597215;36;21139;-73
2021/08/24 15:33:27;;;;;;;5.90;4.93;;;;;;;19.89;59.44;97305.66;2596994;39;20800;-74
2021/08/24 15:35:59;;;;;;;6.57;4.90;;;;;;;19.40;61.13;97310.25;2595752;36;21176;-73
2021/08/24 15:38:29;;;;;;;8.80;5.37;;;;;;;19.46;61.22;97304.38;2598824;54;20430;-73
2021/08/24 15:41:00;;;;;;;8.23;4.73;;;;;;;19.40;62.42;97302.28;2603029;36;20429;-73
2021/08/24 15:43:32;;;;;;;6.60;5.27;;;;;;;19.36;62.47;97301.75;2602514;54;20415;-73
2021/08/24 15:46:03;;;;;;;8.57;5.00;;;;;;;19.36;62.95;97295.59;2597942;31;20808;-73
2021/08/24 15:48:33;;;;;;;7.63;5.00;;;;;;;19.07;63.80;97293.88;2596500;39;20850;-74
2021/08/24 15:51:08;;;;;;;7.97;5.83;;;;;;;19.15;64.35;97295.78;2596364;36;20776;-73
2021/08/24 15:53:38;;;;;;;9.53;6.03;;;;;;;19.02;64.33;97285.47;2596117;54;21029;-73
2021/08/24 15:56:08;;;;;;;7.03;5.13;;;;;;;19.12;63.62;97286.28;2594771;36;20881;-72
2021/08/24 15:58:38;;;;;;;8.70;5.03;;;;;;;19.12;64.06;97280.97;2594652;47;20411;-73
2021/08/24 16:01:10;;;;;;;8.10;5.07;;;;;;;19.09;64.79;97272.47;2597050;39;20878;-72
2021/08/24 16:03:40;;;;;;;36.13;21.90;;;;;;;19.01;65.04;97270.50;2596932;54;20427;-72
2021/08/24 16:06:13;;;;;;;14.30;7.10;;;;;;;18.92;64.72;97268.72;2595711;31;20415;-72
2021/08/24 16:08:43;;;;;;;9.00;5.60;;;;;;;18.91;65.24;97264.38;2596543;39;20435;-72
2021/08/24 16:11:21;;;;;;;8.23;4.80;;;;;;;18.93;65.07;97270.38;2596677;36;20862;-72
2021/08/24 16:13:52;;;;;;;14.20;5.40;;;;;;;18.85;65.43;97267.63;2602260;39;20776;-73
2021/08/24 16:16:23;;;;;;;7.60;5.33;;;;;;;18.63;65.64;97274.03;2596860;36;20933;-73
2021/08/24 16:18:55;;;;;;;8.43;4.80;;;;;;;19.39;63.73;97259.97;2596517;54;20426;-73
2021/08/24 16:24:27;;;;;;;8.10;5.50;;;;;;;21.03;58.09;97262.63;2611628;47;20428;-72
2021/08/24 16:26:57;;;;;;;7.43;4.50;;;;;;;20.96;57.25;97258.91;2613276;31;20458;-72
2021/08/24 16:29:27;;;;;;;5.67;4.27;;;;;;;21.48;55.85;97242.97;2612824;47;20922;-73
2021/08/24 16:31:58;;;;;;;5.90;4.63;;;;;;;21.91;54.82;97243.84;2614770;36;20460;-73
2021/08/24 16:34:31;;;;;;;6.30;4.40;;;;;;;21.64;55.34;97246.69;2613478;54;20403;-73
2021/08/24 16:37:02;;;;;;;7.23;4.90;;;;;;;21.64;54.73;97236.88;2609115;36;20422;-72
2021/08/24 16:39:56;;;;;;;5.37;4.30;;;;;;;21.22;56.55;97242.09;2616268;54;20442;-72
2021/08/24 16:42:37;;;;;;;4.83;4.10;;;;;;;21.14;55.89;97243.72;2576963;54;2004141;-73
2021/08/24 16:45:10;;;;;;;7.20;4.77;;;;;;;21.03;57.03;97251.97;2618819;36;20423;-74
2021/08/24 16:47:41;;;;;;;5.80;4.87;;;;;;;21.30;56.80;97245.63;2617880;54;20577;-74
2021/08/24 16:50:15;;;;;;;6.00;4.50;;;;;;;21.91;55.47;97235.84;2616353;36;20407;-73
2021/08/24 16:52:51;;;;;;;5.90;4.77;;;;;;;21.04;57.66;97242.97;2616793;47;20445;-74
2021/08/24 16:55:25;;;;;;;7.50;5.20;;;;;;;20.28;59.16;97225.66;2607981;36;20958;-73
2021/08/24 16:57:55;;;;;;;7.00;4.60;;;;;;;20.57;59.08;97235.25;2595174;54;20418;-72
2021/08/24 17:00:27;;;;;;;14.57;6.07;;;;;;;20.05;59.82;97235.94;2595641;36;20969;-73
2021/08/24 17:02:57;;;;;;;6.27;5.33;;;;;;;19.66;61.33;97241.41;2595950;54;21230;-72
2021/08/24 17:05:33;;;;;;;8.93;5.17;;;;;;;19.03;63.20;97246.50;2596949;36;21135;-72
2021/08/24 17:08:08;;;;;;;85.97;54.67;;;;;;;19.05;63.73;97240.09;2596309;39;20779;-74
2021/08/24 17:10:40;;;;;;;14.43;7.60;;;;;;;18.82;64.93;97246.66;2595609;36;20418;-73
2021/08/24 17:13:10;;;;;;;8.53;6.67;;;;;;;18.68;65.35;97251.41;2596166;54;20981;-74
2021/08/24 17:15:43;;;;;;;9.77;6.10;;;;;;;18.66;66.16;97253.38;2596323;36;21011;-74
2021/08/24 17:18:14;;;;;;;8.37;6.30;;;;;;;18.50;66.52;97253.06;2597001;54;20403;-74
2021/08/24 17:20:48;;;;;;;8.33;6.23;;;;;;;18.51;66.33;97255.59;2596245;36;20418;-74
2021/08/24 17:23:20;;;;;;;7.63;5.90;;;;;;;18.33;67.26;97258.09;2595826;54;20418;-73
2021/08/24 17:25:52;;;;;;;11.20;6.03;;;;;;;18.13;67.47;97256.38;2595240;36;20418;-73
2021/08/24 17:28:25;;;;;;;9.40;5.83;;;;;;;17.95;68.30;97256.19;2595459;54;20411;-73
2021/08/24 17:30:55;;;;;;;8.37;6.40;;;;;;;17.69;69.55;97253.16;2595565;31;20402;-74
2021/08/24 17:33:25;;;;;;;10.00;6.93;;;;;;;17.63;69.74;97267.78;2596145;54;20883;-73
2021/08/24 17:35:58;;;;;;;9.23;6.90;;;;;;;17.54;69.34;97268.56;2595264;36;20411;-73
2021/08/24 17:38:27;;;;;;;12.07;6.50;;;;;;;17.42;69.94;97265.16;2595033;54;20415;-73
2021/08/24 17:40:57;;;;;;;14.53;6.60;;;;;;;17.22;71.06;97261.59;2595938;36;20446;-73
2021/08/24 17:43:27;;;;;;;14.90;6.23;;;;;;;17.18;71.70;97271.59;2595755;39;20816;-73
2021/08/24 17:45:58;;;;;;;9.40;6.30;;;;;;;17.04;71.64;97271.94;2597013;36;20418;-73
2021/08/24 17:48:31;;;;;;;17.37;7.93;;;;;;;16.95;72.23;97270.06;2596890;54;20415;-73
2021/08/24 17:51:10;;;;;;;15.57;7.50;;;;;;;16.89;72.61;97275.88;2596402;36;20402;-73
2021/08/24 17:53:47;;;;;;;11.27;6.60;;;;;;;16.67;73.65;97272.34;2596337;54;21027;-73
2021/08/24 17:56:19;;;;;;;12.50;6.53;;;;;;;16.61;73.25;97275.50;2595924;36;20952;-73
2021/08/24 17:58:49;;;;;;;8.70;6.37;;;;;;;16.54;73.89;97271.66;2596148;54;20502;-73
2021/08/24 18:01:20;;;;;;;11.90;7.37;;;;;;;16.39;74.69;97282.53;2596418;36;20914;-73
2021/08/24 18:03:50;;;;;;;11.20;6.87;;;;;;;16.30;75.09;97285.09;2596998;39;20807;-73
2021/08/24 18:06:36;;;;;;;9.73;7.30;;;;;;;16.30;74.95;97283.28;2595646;36;20958;-73